LPOV

Details ICAO LPOV
Name OVAR
Region Portugal
Timezone Europe/Lisbon (UTC+1.0)
Plans Departing 5
Arriving 8
Stats Elevation 56 ft / 17 m (AMSL)
Location 40.915920° -8.645925°
Runways 1
Magnetic Variation 2.250° W
Sunrise 2018-05-23 05:11:51 UTC / 2018-05-23 06:11:51 Local
Sunset 2018-05-23 19:53:41 UTC / 2018-05-23 20:53:41 Local
Advertisement - Login to hide

Runways

ID Width Length Bearing (true) Bearing (mag) Surface Threshold Offset Overrun Length
18 148 ft / 45 m 7,979 ft / 2,432 m 176.15° 178.40° Concrete 0 ft / 0 m 0 ft / 0 m
36 148 ft / 45 m 7,979 ft / 2,432 m 356.15° 358.40° Concrete 0 ft / 0 m 0 ft / 0 m

Map

Weather


0- 5 10 15 20 25 30 35+ Temperature / ° C

Clouds and Precipitation
Forecast for 2018-05-23 12:00 UTC. Updated 4 hours ago

Ground ~20,000 ft ~40,000 ft Winds

METAR

LPOV 231500Z 34010KT 9999 FEW020 21/14 Q1014

TAF

TAF LPOV 231102Z 2312/2412 27005KT CAVOK BECMG 2312/2314 34008KT BECMG 2322/2324 VRB02KT FEW015 PROB40 2400/2407 0200 FG BKN002 BECMG 2408/2411 28008KT SCT030 TEMPO 2408/2412 6000 -SHRA BKN030

Frequencies

Tower 122.10 MHz TWR
Approach 118.60 MHz APP
Warning: Do not use this data for real-world aviation or navigation. No guarantee of current accuracy is given.